Thousand Oaks, CA (91360)

1:54 AM PDT on September 05, 2015 (GMT -0700)
College Park | | Change Station
CLOSE
Current Station
Personal Weather Station
Location: Thousand Oaks, CA
Elevation: 741 ft
Nearby Weather Stations

Elev 741 ft 34.22 °N, 118.88 °W | Updated 0 second ago

Clear
Clear
59.6 °F
Feels Like 59.6 °F
N
0.0
Wind Variable Wind from NNE
Gusts 2.0 mph

Today
High -- | Low -- °F
--% Chance of Precip.
Yesterday
High -- | Low -- °F
Precip. -- in
6:31 AM 7:16 PM
Waning Gibbous, 50% visible
Pressure 29.90 in
Visibility 10.0 miles
Clouds Clear
Dew Point 55 °F
Humidity 85%
Rainfall 0.00 in
Snow Depth Not available.
UV 0 out of 12
Pollen 9.20 out of 12
Air Quality Not available.
Flu Activity Not available.
METAR KCMA 050755Z 04004KT 10SM CLR 18/13 A2987 RMK AO2 SLP123 T01830133 402560161
Pressure 29.90 in
Visibility 10.0 miles
Clouds Clear
Dew Point 55 °F
Humidity 85%
Rainfall 0.00 in
Snow Depth Not available.
UV 0 out of 12
Pollen 9.20 out of 12
Air Quality Not available.
Flu Activity Not available.
METAR KCMA 050755Z 04004KT 10SM CLR 18/13 A2987 RMK AO2 SLP123 T01830133 402560161

10-Day Weather Forecast

×

Almanac

Astronomy

Sep. 05, 2015 Rise Set
Actual Time
Civil Twilight
Nautical Twilight
Astronomical Twilight
Moon
Length of Visible Light
Length of Day
Tomorrow will be .
, % of the Moon is Illuminated

Today's Extremes

State Highs State Lows

Community

WunderPhotos

Upload Photos

1,852,440 photos uploaded!

WunderBlogs® & News

Nearby

Air Quality

  Air Quality AQ Index Pollutant
Not available.

Snow Depth

Station Depth Elevation

Earthquake Activity

City Distance Mag. Time & Date
Minimum magnitude displayed is 2.5.

Coastal Water Temperatures

Place Temperature

Stations

Nearby Weather Stations

Station Location Temp. Windchill Dew Point Humidity Wind Precip. Elev Updated Type